createdAt,value
2019-06-27T00:01:41.819Z,2.50
2019-06-27T00:06:41.525Z,1.97
2019-06-27T00:11:41.280Z,1.97
2019-06-27T00:16:40.919Z,2.20
2019-06-27T00:21:40.583Z,2.00
2019-06-27T00:26:55.830Z,2.40
2019-06-27T00:31:41.719Z,1.77
2019-06-27T00:36:41.347Z,2.03
2019-06-27T00:41:40.995Z,2.00
2019-06-27T00:46:40.777Z,1.77
2019-06-27T00:51:40.692Z,2.30
2019-06-27T00:56:40.451Z,1.87
2019-06-27T01:01:40.110Z,2.90
2019-06-27T01:06:39.883Z,1.93
2019-06-27T01:11:39.543Z,2.63
2019-06-27T01:16:39.391Z,2.53
2019-06-27T01:21:39.411Z,2.30
2019-06-27T01:26:39.197Z,2.27
2019-06-27T01:31:39.175Z,2.40
2019-06-27T01:36:38.812Z,2.00
2019-06-27T01:41:38.579Z,2.40
2019-06-27T01:46:38.277Z,2.10
2019-06-27T01:51:37.916Z,2.43
2019-06-27T01:56:37.574Z,2.60
2019-06-27T02:01:37.524Z,2.87
2019-06-27T02:06:37.219Z,2.33
2019-06-27T02:11:37.104Z,2.80
2019-06-27T02:16:36.958Z,2.77
2019-06-27T02:21:36.734Z,2.20
2019-06-27T02:26:37.800Z,2.70
2019-06-27T02:31:37.566Z,2.80
2019-06-27T02:36:37.288Z,2.73
2019-06-27T02:41:37.037Z,2.40
2019-06-27T02:46:37.003Z,1.87
2019-06-27T02:51:36.763Z,2.50
2019-06-27T02:56:36.952Z,2.80
2019-06-27T03:01:37.041Z,2.00
2019-06-27T03:06:36.805Z,2.10
2019-06-27T03:11:36.655Z,2.60
2019-06-27T03:16:36.515Z,2.60
2019-06-27T03:21:36.305Z,2.80
2019-06-27T03:26:36.058Z,2.20
2019-06-27T03:31:36.969Z,2.43
2019-06-27T03:36:36.753Z,2.20
2019-06-27T03:41:36.461Z,2.50
2019-06-27T03:46:36.436Z,2.03
2019-06-27T03:51:36.150Z,2.60
2019-06-27T03:56:35.878Z,2.10
2019-06-27T04:01:35.680Z,1.90
2019-06-27T04:06:35.356Z,2.20
2019-06-27T04:11:35.209Z,2.50
2019-06-27T04:16:38.251Z,2.40
2019-06-27T04:21:38.370Z,2.20
2019-06-27T04:26:38.093Z,3.10
2019-06-27T04:31:37.791Z,2.87
2019-06-27T04:36:37.629Z,2.87
2019-06-27T04:41:37.327Z,3.23
2019-06-27T04:46:36.989Z,2.97
2019-06-27T04:51:36.990Z,2.67
2019-06-27T04:56:37.305Z,2.27
2019-06-27T05:01:36.965Z,3.00
2019-06-27T05:06:36.908Z,2.07
2019-06-27T05:11:36.837Z,3.23
2019-06-27T05:16:36.567Z,2.20
2019-06-27T05:21:37.320Z,3.00
2019-06-27T05:26:36.987Z,3.07
2019-06-27T05:31:37.064Z,2.93
2019-06-27T05:36:36.715Z,2.53
2019-06-27T05:41:36.340Z,1.93
2019-06-27T05:46:35.980Z,3.03
2019-06-27T05:51:35.675Z,2.70
2019-06-27T05:56:35.368Z,2.73
2019-06-27T06:01:35.108Z,2.23
2019-06-27T06:06:35.868Z,2.57
2019-06-27T06:11:35.731Z,2.30
2019-06-27T06:16:35.452Z,3.10
2019-06-27T06:21:35.284Z,2.93
2019-06-27T06:26:35.187Z,3.03
2019-06-27T06:31:35.123Z,3.60
2019-06-27T06:36:34.859Z,2.77
2019-06-27T06:41:35.230Z,2.50
2019-06-27T06:46:35.284Z,2.90
2019-06-27T06:51:35.086Z,2.63
2019-06-27T06:56:34.761Z,3.50
2019-06-27T07:01:34.943Z,3.00
2019-06-27T07:06:34.984Z,3.17
2019-06-27T07:11:34.648Z,3.07
2019-06-27T07:16:34.276Z,3.20
2019-06-27T07:21:33.948Z,3.03
2019-06-27T07:26:33.644Z,3.10
2019-06-27T07:31:33.431Z,3.77
2019-06-27T07:36:33.228Z,3.40
2019-06-27T07:41:32.887Z,3.40
2019-06-27T07:46:32.535Z,2.90
2019-06-27T07:51:32.539Z,3.60
2019-06-27T07:56:32.653Z,2.33
2019-06-27T08:01:35.741Z,2.80
2019-06-27T08:06:33.860Z,2.37
2019-06-27T08:11:33.519Z,2.70
2019-06-27T08:16:33.175Z,2.63
2019-06-27T08:21:33.124Z,1.80
2019-06-27T08:26:33.091Z,1.90
2019-06-27T08:31:32.886Z,1.70
2019-06-27T08:36:32.834Z,2.30
2019-06-27T08:41:32.808Z,2.97
2019-06-27T08:46:51.697Z,1.77
2019-06-27T08:51:51.351Z,1.50
2019-06-27T08:56:51.130Z,2.20
2019-06-27T09:02:07.055Z,2.00
2019-06-27T09:06:52.700Z,2.50
2019-06-27T09:11:52.617Z,1.97
2019-06-27T09:16:52.469Z,1.70
2019-06-27T09:21:52.191Z,1.40
2019-06-27T09:26:51.857Z,1.50
2019-06-27T09:31:51.710Z,2.57
2019-06-27T09:36:51.356Z,1.70
2019-06-27T09:41:51.087Z,1.83
2019-06-27T09:46:51.048Z,1.50
2019-06-27T09:51:50.823Z,1.70
2019-06-27T09:56:50.903Z,1.03
2019-06-27T10:01:50.642Z,1.47
2019-06-27T10:06:51.515Z,2.17
2019-06-27T10:11:53.371Z,1.80
2019-06-27T10:16:52.628Z,1.40
2019-06-27T10:21:52.802Z,1.20
2019-06-27T10:26:52.465Z,1.20
2019-06-27T10:31:52.137Z,1.47
2019-06-27T10:36:51.989Z,1.67
2019-06-27T10:41:51.809Z,1.20
2019-06-27T10:46:51.686Z,1.10
2019-06-27T10:51:51.436Z,1.40
2019-06-27T10:56:51.591Z,1.03
2019-06-27T11:01:51.267Z,1.30
2019-06-27T11:06:50.916Z,1.27
2019-06-27T11:11:50.625Z,1.30
2019-06-27T11:16:50.756Z,1.23
2019-06-27T11:21:50.435Z,1.20
2019-06-27T11:26:50.129Z,1.10
2019-06-27T11:31:49.843Z,1.07
2019-06-27T11:36:49.487Z,1.13
2019-06-27T11:41:49.412Z,1.03
2019-06-27T11:46:49.060Z,1.43
2019-06-27T11:51:49.123Z,2.10
2019-06-27T11:56:48.915Z,1.20
2019-06-27T12:01:48.783Z,1.33
2019-06-27T12:06:48.891Z,1.23
2019-06-27T12:11:48.572Z,1.30
2019-06-27T12:16:48.240Z,1.00
2019-06-27T12:21:48.718Z,1.17
2019-06-27T12:26:48.491Z,1.80
2019-06-27T12:31:51.481Z,1.50
2019-06-27T12:36:49.724Z,1.40
2019-06-27T12:41:49.465Z,1.20
2019-06-27T12:46:49.143Z,1.40
2019-06-27T12:51:49.028Z,1.10
2019-06-27T12:56:48.651Z,1.20
2019-06-27T13:01:48.299Z,1.00
2019-06-27T13:06:48.053Z,1.13
2019-06-27T13:11:47.718Z,0.90
2019-06-27T13:16:48.475Z,1.13
2019-06-27T13:21:48.345Z,1.10
2019-06-27T13:26:48.068Z,1.10
2019-06-27T13:31:47.754Z,1.10
2019-06-27T13:36:48.520Z,1.30
2019-06-27T13:41:48.704Z,1.17
2019-06-27T13:46:48.479Z,1.00
2019-06-27T13:51:49.557Z,1.40
2019-06-27T13:56:49.196Z,1.13
2019-06-27T14:01:48.995Z,1.00
2019-06-27T14:06:48.815Z,1.20
2019-06-27T14:11:48.601Z,1.20
2019-06-27T14:16:48.390Z,1.10
2019-06-27T14:21:48.947Z,1.27
2019-06-27T14:26:48.829Z,1.20
2019-06-27T14:31:48.473Z,1.10
2019-06-27T14:36:48.152Z,1.60
2019-06-27T14:41:47.879Z,1.20
2019-06-27T14:46:47.612Z,1.27
2019-06-27T14:51:47.405Z,0.90
2019-06-27T14:56:47.627Z,1.13
2019-06-27T15:01:47.321Z,1.47
2019-06-27T15:06:47.145Z,1.37
2019-06-27T15:11:46.864Z,1.60
2019-06-27T15:16:46.522Z,1.43
2019-06-27T15:21:46.599Z,1.70
2019-06-27T15:26:46.466Z,1.70
2019-06-27T15:31:46.527Z,1.60
2019-06-27T15:36:46.308Z,1.50
2019-06-27T15:41:46.431Z,1.80
2019-06-27T15:46:46.171Z,1.60
2019-06-27T15:51:46.340Z,1.60
2019-06-27T15:56:46.008Z,1.60
2019-06-27T16:01:45.693Z,1.70
2019-06-27T16:06:45.429Z,1.57
2019-06-27T16:11:45.269Z,1.43
2019-06-27T16:16:45.200Z,1.50
2019-06-27T16:21:44.979Z,2.17
2019-06-27T16:26:45.448Z,2.00
2019-06-27T16:31:45.490Z,2.10
2019-06-27T16:36:45.284Z,1.97
2019-06-27T16:41:44.950Z,2.17
2019-06-27T16:46:44.943Z,2.40
2019-06-27T16:51:44.608Z,2.23
2019-06-27T16:56:44.499Z,1.80
2019-06-27T17:01:44.655Z,2.23
2019-06-27T17:06:44.470Z,2.30
2019-06-27T17:11:44.147Z,2.07
2019-06-27T17:16:43.907Z,2.80
2019-06-27T17:21:43.656Z,2.30
2019-06-27T17:26:43.716Z,2.20
2019-06-27T17:31:44.744Z,3.00
2019-06-27T17:36:56.948Z,1.90
2019-06-27T17:41:46.483Z,2.50
2019-06-27T17:46:46.587Z,2.30
2019-06-27T17:51:47.835Z,2.07
2019-06-27T17:56:47.696Z,2.40
2019-06-27T18:01:47.448Z,2.33
2019-06-27T18:06:47.122Z,2.10
2019-06-27T18:11:47.327Z,2.40
2019-06-27T18:16:47.007Z,2.10
2019-06-27T18:21:46.718Z,2.53
2019-06-27T18:26:46.539Z,2.60
2019-06-27T18:31:46.399Z,2.70
2019-06-27T18:36:46.355Z,2.40
2019-06-27T18:41:45.979Z,2.13
2019-06-27T18:46:45.719Z,2.30
2019-06-27T18:51:45.815Z,2.43
2019-06-27T18:56:45.536Z,2.47
2019-06-27T19:01:45.315Z,2.00
2019-06-27T19:06:45.003Z,2.30
2019-06-27T19:11:44.767Z,2.10
2019-06-27T19:16:44.549Z,2.53
2019-06-27T19:21:51.371Z,2.30
2019-06-27T19:26:52.231Z,2.60
2019-06-27T19:31:52.155Z,1.90
2019-06-27T19:36:51.775Z,2.17
2019-06-27T19:41:51.615Z,2.40
2019-06-27T19:46:51.319Z,2.80
2019-06-27T19:51:51.139Z,2.10
2019-06-27T19:56:51.194Z,1.93
2019-06-27T20:01:50.999Z,2.70
2019-06-27T20:06:50.696Z,2.47
2019-06-27T20:11:50.503Z,2.30
2019-06-27T20:16:50.945Z,2.13
2019-06-27T20:21:51.056Z,2.27
2019-06-27T20:26:50.711Z,2.73
2019-06-27T20:31:50.554Z,2.43
2019-06-27T20:36:52.288Z,2.47
2019-06-27T20:41:52.278Z,3.10
2019-06-27T20:46:52.139Z,3.23
2019-06-27T20:51:52.000Z,2.60
2019-06-27T20:56:51.784Z,2.70
2019-06-27T21:01:51.576Z,2.90
2019-06-27T21:06:51.291Z,2.57
2019-06-27T21:11:51.015Z,2.47
2019-06-27T21:16:50.683Z,2.67
2019-06-27T21:21:50.471Z,2.30
2019-06-27T21:26:50.200Z,2.63
2019-06-27T21:32:01.507Z,2.97
2019-06-27T21:37:01.456Z,2.43
2019-06-27T21:42:01.447Z,2.30
2019-06-27T21:47:01.482Z,2.60
2019-06-27T21:52:01.425Z,2.73
2019-06-27T21:57:01.275Z,3.13
2019-06-27T22:02:01.080Z,3.23
2019-06-27T22:07:00.925Z,3.00
2019-06-27T22:12:00.733Z,3.07
2019-06-27T22:17:00.477Z,3.53
2019-06-27T22:22:00.315Z,3.20
2019-06-27T22:27:00.238Z,3.67
2019-06-27T22:32:00.948Z,3.53
2019-06-27T22:37:03.943Z,2.80
2019-06-27T22:42:21.431Z,2.67
2019-06-27T22:47:39.042Z,2.70
2019-06-27T22:53:07.275Z,2.80
2019-06-27T22:58:08.024Z,2.90
2019-06-27T23:03:07.670Z,3.37
2019-06-27T23:08:07.756Z,3.80
2019-06-27T23:13:07.468Z,2.80
2019-06-27T23:18:07.102Z,3.13
2019-06-27T23:23:06.979Z,3.17
2019-06-27T23:28:06.833Z,3.10
2019-06-27T23:33:06.568Z,3.57
2019-06-27T23:38:06.495Z,4.40
2019-06-27T23:43:06.244Z,3.63
2019-06-27T23:48:05.878Z,4.27
2019-06-27T23:53:05.852Z,4.20
2019-06-27T23:58:05.719Z,4.10
